sensor_id;sensor_type;location;lat;lon;timestamp;temperature;humidity
71563;DHT22;59391;52.504;13.438;2023-06-14T00:00:34;18.60;47.00
71563;DHT22;59391;52.504;13.438;2023-06-14T00:03:00;18.50;47.00
71563;DHT22;59391;52.504;13.438;2023-06-14T00:05:25;18.60;47.20
71563;DHT22;59391;52.504;13.438;2023-06-14T00:07:51;18.50;47.10
71563;DHT22;59391;52.504;13.438;2023-06-14T00:10:19;18.50;47.20
71563;DHT22;59391;52.504;13.438;2023-06-14T00:12:44;18.50;47.40
71563;DHT22;59391;52.504;13.438;2023-06-14T00:15:10;18.40;47.60
71563;DHT22;59391;52.504;13.438;2023-06-14T00:17:36;18.40;47.90
71563;DHT22;59391;52.504;13.438;2023-06-14T00:20:04;18.40;48.10
71563;DHT22;59391;52.504;13.438;2023-06-14T00:22:33;18.30;48.20
71563;DHT22;59391;52.504;13.438;2023-06-14T00:24:59;18.30;48.30
71563;DHT22;59391;52.504;13.438;2023-06-14T00:27:25;18.30;48.50
71563;DHT22;59391;52.504;13.438;2023-06-14T00:29:51;18.30;48.80
71563;DHT22;59391;52.504;13.438;2023-06-14T00:32:18;18.30;48.80
71563;DHT22;59391;52.504;13.438;2023-06-14T00:34:44;18.20;49.00
71563;DHT22;59391;52.504;13.438;2023-06-14T00:37:09;18.20;49.10
71563;DHT22;59391;52.504;13.438;2023-06-14T00:39:35;18.20;49.10
71563;DHT22;59391;52.504;13.438;2023-06-14T00:42:01;18.20;49.30
71563;DHT22;59391;52.504;13.438;2023-06-14T00:44:27;18.20;49.40
71563;DHT22;59391;52.504;13.438;2023-06-14T00:46:52;18.10;49.60
71563;DHT22;59391;52.504;13.438;2023-06-14T00:49:18;18.10;49.70
71563;DHT22;59391;52.504;13.438;2023-06-14T00:51:45;18.10;49.90
71563;DHT22;59391;52.504;13.438;2023-06-14T00:54:14;18.10;50.20
71563;DHT22;59391;52.504;13.438;2023-06-14T00:56:40;18.10;50.10
71563;DHT22;59391;52.504;13.438;2023-06-14T00:59:08;18.10;50.50
71563;DHT22;59391;52.504;13.438;2023-06-14T01:01:36;18.00;50.50
71563;DHT22;59391;52.504;13.438;2023-06-14T01:04:02;18.00;50.40
71563;DHT22;59391;52.504;13.438;2023-06-14T01:06:45;18.00;50.70
71563;DHT22;59391;52.504;13.438;2023-06-14T01:09:37;17.90;50.90
71563;DHT22;59391;52.504;13.438;2023-06-14T01:15:01;17.90;51.10
71563;DHT22;59391;52.504;13.438;2023-06-14T01:17:28;17.90;51.10
71563;DHT22;59391;52.504;13.438;2023-06-14T01:19:59;17.80;51.10
71563;DHT22;59391;52.504;13.438;2023-06-14T01:22:26;17.80;51.30
71563;DHT22;59391;52.504;13.438;2023-06-14T01:24:53;17.80;51.50
71563;DHT22;59391;52.504;13.438;2023-06-14T01:27:22;17.70;51.60
71563;DHT22;59391;52.504;13.438;2023-06-14T01:29:54;17.70;51.80
71563;DHT22;59391;52.504;13.438;2023-06-14T01:32:28;17.70;51.80
71563;DHT22;59391;52.504;13.438;2023-06-14T01:34:54;17.70;51.90
71563;DHT22;59391;52.504;13.438;2023-06-14T01:37:21;17.70;51.80
71563;DHT22;59391;52.504;13.438;2023-06-14T01:39:48;17.70;51.80
71563;DHT22;59391;52.504;13.438;2023-06-14T01:42:17;17.70;51.90
71563;DHT22;59391;52.504;13.438;2023-06-14T01:44:44;17.60;51.90
71563;DHT22;59391;52.504;13.438;2023-06-14T01:47:12;17.60;51.90
71563;DHT22;59391;52.504;13.438;2023-06-14T01:49:38;17.60;52.00
71563;DHT22;59391;52.504;13.438;2023-06-14T01:52:04;17.60;52.20
71563;DHT22;59391;52.504;13.438;2023-06-14T01:54:31;17.60;52.10
71563;DHT22;59391;52.504;13.438;2023-06-14T01:56:57;17.60;52.20
71563;DHT22;59391;52.504;13.438;2023-06-14T01:59:22;17.60;52.10
71563;DHT22;59391;52.504;13.438;2023-06-14T02:01:48;17.60;52.20
71563;DHT22;59391;52.504;13.438;2023-06-14T02:04:14;17.50;52.20
71563;DHT22;59391;52.504;13.438;2023-06-14T02:06:39;17.50;52.40
71563;DHT22;59391;52.504;13.438;2023-06-14T02:09:05;17.50;52.60
71563;DHT22;59391;52.504;13.438;2023-06-14T02:11:31;17.50;52.60
71563;DHT22;59391;52.504;13.438;2023-06-14T02:13:56;17.50;52.70
71563;DHT22;59391;52.504;13.438;2023-06-14T02:16:22;17.50;52.70
71563;DHT22;59391;52.504;13.438;2023-06-14T02:18:48;17.50;53.00
71563;DHT22;59391;52.504;13.438;2023-06-14T02:21:14;17.50;53.10
71563;DHT22;59391;52.504;13.438;2023-06-14T02:23:40;17.50;53.20
71563;DHT22;59391;52.504;13.438;2023-06-14T02:26:06;17.50;53.30
71563;DHT22;59391;52.504;13.438;2023-06-14T02:28:31;17.50;53.50
71563;DHT22;59391;52.504;13.438;2023-06-14T02:30:57;17.50;53.50
71563;DHT22;59391;52.504;13.438;2023-06-14T02:33:23;17.50;53.50
71563;DHT22;59391;52.504;13.438;2023-06-14T02:35:48;17.50;53.50
71563;DHT22;59391;52.504;13.438;2023-06-14T02:38:14;17.40;53.50
71563;DHT22;59391;52.504;13.438;2023-06-14T02:40:39;17.40;53.50
71563;DHT22;59391;52.504;13.438;2023-06-14T02:43:07;17.40;53.60
71563;DHT22;59391;52.504;13.438;2023-06-14T02:45:33;17.40;53.60
71563;DHT22;59391;52.504;13.438;2023-06-14T02:47:59;17.40;53.70
71563;DHT22;59391;52.504;13.438;2023-06-14T02:50:25;17.40;53.70
71563;DHT22;59391;52.504;13.438;2023-06-14T02:52:51;17.30;53.70
71563;DHT22;59391;52.504;13.438;2023-06-14T02:55:17;17.30;53.80
71563;DHT22;59391;52.504;13.438;2023-06-14T02:57:43;17.30;53.80
71563;DHT22;59391;52.504;13.438;2023-06-14T03:00:09;17.30;53.90
71563;DHT22;59391;52.504;13.438;2023-06-14T03:02:37;17.30;54.00
71563;DHT22;59391;52.504;13.438;2023-06-14T03:05:02;17.30;54.00
71563;DHT22;59391;52.504;13.438;2023-06-14T03:07:28;17.20;54.10
71563;DHT22;59391;52.504;13.438;2023-06-14T03:09:55;17.20;54.10
71563;DHT22;59391;52.504;13.438;2023-06-14T03:12:20;17.20;54.20
71563;DHT22;59391;52.504;13.438;2023-06-14T03:14:46;17.20;54.40
71563;DHT22;59391;52.504;13.438;2023-06-14T03:17:12;17.20;54.40
71563;DHT22;59391;52.504;13.438;2023-06-14T03:19:37;17.20;54.50
71563;DHT22;59391;52.504;13.438;2023-06-14T03:22:03;17.20;54.50
71563;DHT22;59391;52.504;13.438;2023-06-14T03:24:29;17.20;54.50
71563;DHT22;59391;52.504;13.438;2023-06-14T03:26:57;17.20;54.40
71563;DHT22;59391;52.504;13.438;2023-06-14T03:29:22;17.20;54.50
71563;DHT22;59391;52.504;13.438;2023-06-14T03:31:59;17.20;54.60
71563;DHT22;59391;52.504;13.438;2023-06-14T03:34:28;17.20;54.70
71563;DHT22;59391;52.504;13.438;2023-06-14T03:36:54;17.20;54.60
71563;DHT22;59391;52.504;13.438;2023-06-14T03:39:20;17.20;54.50
71563;DHT22;59391;52.504;13.438;2023-06-14T03:41:46;17.20;54.60
71563;DHT22;59391;52.504;13.438;2023-06-14T03:44:15;17.20;54.70
71563;DHT22;59391;52.504;13.438;2023-06-14T03:46:42;17.20;54.80
71563;DHT22;59391;52.504;13.438;2023-06-14T03:49:08;17.20;54.70
71563;DHT22;59391;52.504;13.438;2023-06-14T03:51:34;17.20;54.70
71563;DHT22;59391;52.504;13.438;2023-06-14T03:54:00;17.10;54.80
71563;DHT22;59391;52.504;13.438;2023-06-14T03:56:26;17.10;54.80
71563;DHT22;59391;52.504;13.438;2023-06-14T03:58:52;17.10;54.80
71563;DHT22;59391;52.504;13.438;2023-06-14T04:01:18;17.10;54.90
71563;DHT22;59391;52.504;13.438;2023-06-14T04:03:43;17.10;54.80
71563;DHT22;59391;52.504;13.438;2023-06-14T04:06:09;17.10;54.90
71563;DHT22;59391;52.504;13.438;2023-06-14T04:08:35;17.20;55.00
71563;DHT22;59391;52.504;13.438;2023-06-14T04:11:01;17.20;55.10
71563;DHT22;59391;52.504;13.438;2023-06-14T04:13:27;17.20;55.10
71563;DHT22;59391;52.504;13.438;2023-06-14T04:15:52;17.20;55.10
71563;DHT22;59391;52.504;13.438;2023-06-14T04:18:18;17.20;55.20
71563;DHT22;59391;52.504;13.438;2023-06-14T04:20:45;17.30;55.10
71563;DHT22;59391;52.504;13.438;2023-06-14T04:23:14;17.30;55.10
71563;DHT22;59391;52.504;13.438;2023-06-14T04:25:40;17.30;55.10
71563;DHT22;59391;52.504;13.438;2023-06-14T04:28:06;17.40;55.00
71563;DHT22;59391;52.504;13.438;2023-06-14T04:30:34;17.40;55.00
71563;DHT22;59391;52.504;13.438;2023-06-14T04:33:01;17.40;54.90
71563;DHT22;59391;52.504;13.438;2023-06-14T04:35:31;17.50;54.80
71563;DHT22;59391;52.504;13.438;2023-06-14T04:37:58;17.50;55.00
71563;DHT22;59391;52.504;13.438;2023-06-14T04:40:24;17.60;54.80
71563;DHT22;59391;52.504;13.438;2023-06-14T04:42:50;17.60;54.40
71563;DHT22;59391;52.504;13.438;2023-06-14T04:45:16;17.60;54.30
71563;DHT22;59391;52.504;13.438;2023-06-14T04:47:42;17.60;54.30
71563;DHT22;59391;52.504;13.438;2023-06-14T04:50:09;17.70;54.10
71563;DHT22;59391;52.504;13.438;2023-06-14T04:52:36;17.70;54.20
71563;DHT22;59391;52.504;13.438;2023-06-14T04:55:02;17.70;54.20
71563;DHT22;59391;52.504;13.438;2023-06-14T04:57:28;17.70;54.00
71563;DHT22;59391;52.504;13.438;2023-06-14T04:59:54;17.70;54.10
71563;DHT22;59391;52.504;13.438;2023-06-14T05:02:24;17.80;54.10
71563;DHT22;59391;52.504;13.438;2023-06-14T05:04:51;17.80;53.90
71563;DHT22;59391;52.504;13.438;2023-06-14T05:07:17;17.80;53.90
71563;DHT22;59391;52.504;13.438;2023-06-14T05:09:43;17.80;53.80
71563;DHT22;59391;52.504;13.438;2023-06-14T05:12:09;17.90;53.80
71563;DHT22;59391;52.504;13.438;2023-06-14T05:14:35;17.90;53.80
71563;DHT22;59391;52.504;13.438;2023-06-14T05:17:01;17.90;53.60
71563;DHT22;59391;52.504;13.438;2023-06-14T05:19:28;18.00;53.40
71563;DHT22;59391;52.504;13.438;2023-06-14T05:21:54;18.00;53.40
71563;DHT22;59391;52.504;13.438;2023-06-14T05:24:19;18.00;53.50
71563;DHT22;59391;52.504;13.438;2023-06-14T05:26:46;18.10;53.50
71563;DHT22;59391;52.504;13.438;2023-06-14T05:29:12;18.10;53.40
71563;DHT22;59391;52.504;13.438;2023-06-14T05:31:38;18.20;53.10
71563;DHT22;59391;52.504;13.438;2023-06-14T05:34:03;18.20;53.00
71563;DHT22;59391;52.504;13.438;2023-06-14T05:36:29;18.30;53.00
71563;DHT22;59391;52.504;13.438;2023-06-14T05:38:55;18.40;52.80
71563;DHT22;59391;52.504;13.438;2023-06-14T05:41:24;18.40;52.80
71563;DHT22;59391;52.504;13.438;2023-06-14T05:43:54;18.40;52.90
71563;DHT22;59391;52.504;13.438;2023-06-14T05:46:21;18.50;52.90
71563;DHT22;59391;52.504;13.438;2023-06-14T05:48:51;18.50;52.80
71563;DHT22;59391;52.504;13.438;2023-06-14T05:51:18;18.60;52.70
71563;DHT22;59391;52.504;13.438;2023-06-14T05:53:46;18.60;52.80
71563;DHT22;59391;52.504;13.438;2023-06-14T05:56:19;18.70;52.50
71563;DHT22;59391;52.504;13.438;2023-06-14T05:58:45;18.70;52.20
71563;DHT22;59391;52.504;13.438;2023-06-14T06:01:11;18.70;52.30
71563;DHT22;59391;52.504;13.438;2023-06-14T06:03:38;18.80;52.10
71563;DHT22;59391;52.504;13.438;2023-06-14T06:06:04;18.80;52.20
71563;DHT22;59391;52.504;13.438;2023-06-14T06:08:30;18.80;52.10
71563;DHT22;59391;52.504;13.438;2023-06-14T06:10:56;18.80;52.20
71563;DHT22;59391;52.504;13.438;2023-06-14T06:13:22;18.80;51.80
71563;DHT22;59391;52.504;13.438;2023-06-14T06:15:48;18.80;51.90
71563;DHT22;59391;52.504;13.438;2023-06-14T06:18:14;18.80;52.20
71563;DHT22;59391;52.504;13.438;2023-06-14T06:20:40;18.80;51.90
71563;DHT22;59391;52.504;13.438;2023-06-14T06:23:05;18.80;51.80
71563;DHT22;59391;52.504;13.438;2023-06-14T06:25:31;18.90;51.90
71563;DHT22;59391;52.504;13.438;2023-06-14T06:27:57;18.80;51.90
71563;DHT22;59391;52.504;13.438;2023-06-14T06:30:24;18.90;52.10
71563;DHT22;59391;52.504;13.438;2023-06-14T06:32:50;18.80;51.90
71563;DHT22;59391;52.504;13.438;2023-06-14T06:35:17;18.90;52.00
71563;DHT22;59391;52.504;13.438;2023-06-14T06:37:43;18.90;51.90
71563;DHT22;59391;52.504;13.438;2023-06-14T06:40:08;18.90;51.90
71563;DHT22;59391;52.504;13.438;2023-06-14T06:42:35;18.90;52.00
71563;DHT22;59391;52.504;13.438;2023-06-14T06:45:02;18.80;52.00
71563;DHT22;59391;52.504;13.438;2023-06-14T06:47:27;18.80;52.00
71563;DHT22;59391;52.504;13.438;2023-06-14T06:49:56;18.80;52.20
71563;DHT22;59391;52.504;13.438;2023-06-14T06:52:21;18.90;52.20
71563;DHT22;59391;52.504;13.438;2023-06-14T06:54:47;18.90;52.30
71563;DHT22;59391;52.504;13.438;2023-06-14T06:57:17;18.90;52.10
71563;DHT22;59391;52.504;13.438;2023-06-14T06:59:42;19.00;52.20
71563;DHT22;59391;52.504;13.438;2023-06-14T07:02:08;19.00;51.90
71563;DHT22;59391;52.504;13.438;2023-06-14T07:04:33;19.10;52.10
71563;DHT22;59391;52.504;13.438;2023-06-14T07:06:59;19.10;51.90
71563;DHT22;59391;52.504;13.438;2023-06-14T07:09:25;19.10;51.90
71563;DHT22;59391;52.504;13.438;2023-06-14T07:11:50;19.20;51.90
71563;DHT22;59391;52.504;13.438;2023-06-14T07:14:16;19.30;51.70
71563;DHT22;59391;52.504;13.438;2023-06-14T07:16:42;19.30;51.90
71563;DHT22;59391;52.504;13.438;2023-06-14T07:19:08;19.40;51.60
71563;DHT22;59391;52.504;13.438;2023-06-14T07:21:35;19.50;51.30
71563;DHT22;59391;52.504;13.438;2023-06-14T07:24:03;19.60;51.30
71563;DHT22;59391;52.504;13.438;2023-06-14T07:26:31;19.60;50.90
71563;DHT22;59391;52.504;13.438;2023-06-14T07:28:57;19.70;50.70
71563;DHT22;59391;52.504;13.438;2023-06-14T07:31:23;19.80;50.90
71563;DHT22;59391;52.504;13.438;2023-06-14T07:33:52;19.90;50.60
71563;DHT22;59391;52.504;13.438;2023-06-14T07:36:17;20.00;50.50
71563;DHT22;59391;52.504;13.438;2023-06-14T07:38:43;20.00;50.30
71563;DHT22;59391;52.504;13.438;2023-06-14T07:41:09;20.10;50.50
71563;DHT22;59391;52.504;13.438;2023-06-14T07:43:34;20.20;50.10
71563;DHT22;59391;52.504;13.438;2023-06-14T07:46:00;20.30;49.90
71563;DHT22;59391;52.504;13.438;2023-06-14T07:48:27;20.40;49.80
71563;DHT22;59391;52.504;13.438;2023-06-14T07:50:53;20.50;49.60
71563;DHT22;59391;52.504;13.438;2023-06-14T07:53:18;20.50;49.70
71563;DHT22;59391;52.504;13.438;2023-06-14T07:55:44;20.60;49.30
71563;DHT22;59391;52.504;13.438;2023-06-14T07:58:10;20.70;49.10
71563;DHT22;59391;52.504;13.438;2023-06-14T08:00:36;20.70;49.30
71563;DHT22;59391;52.504;13.438;2023-06-14T08:03:04;20.80;49.40
71563;DHT22;59391;52.504;13.438;2023-06-14T08:05:33;20.90;48.80
71563;DHT22;59391;52.504;13.438;2023-06-14T08:08:00;20.90;48.40
71563;DHT22;59391;52.504;13.438;2023-06-14T08:10:27;21.00;48.50
71563;DHT22;59391;52.504;13.438;2023-06-14T08:12:52;21.10;48.40
71563;DHT22;59391;52.504;13.438;2023-06-14T08:15:18;21.10;48.10
71563;DHT22;59391;52.504;13.438;2023-06-14T08:17:44;21.20;47.80
71563;DHT22;59391;52.504;13.438;2023-06-14T08:20:10;21.30;47.70
71563;DHT22;59391;52.504;13.438;2023-06-14T08:22:38;21.30;47.60
71563;DHT22;59391;52.504;13.438;2023-06-14T08:25:07;21.40;47.40
71563;DHT22;59391;52.504;13.438;2023-06-14T08:27:34;21.40;46.70
71563;DHT22;59391;52.504;13.438;2023-06-14T08:30:00;21.50;47.00
71563;DHT22;59391;52.504;13.438;2023-06-14T08:32:25;21.60;47.00
71563;DHT22;59391;52.504;13.438;2023-06-14T08:34:51;21.70;46.70
71563;DHT22;59391;52.504;13.438;2023-06-14T08:37:17;21.80;46.60
71563;DHT22;59391;52.504;13.438;2023-06-14T08:39:42;21.80;46.20
71563;DHT22;59391;52.504;13.438;2023-06-14T08:42:09;21.90;46.00
71563;DHT22;59391;52.504;13.438;2023-06-14T08:44:36;22.00;45.90
71563;DHT22;59391;52.504;13.438;2023-06-14T08:47:02;22.10;46.00
71563;DHT22;59391;52.504;13.438;2023-06-14T08:49:29;22.20;45.90
71563;DHT22;59391;52.504;13.438;2023-06-14T08:52:00;22.20;45.20
71563;DHT22;59391;52.504;13.438;2023-06-14T08:54:29;22.20;44.60
71563;DHT22;59391;52.504;13.438;2023-06-14T08:56:57;22.30;44.80
71563;DHT22;59391;52.504;13.438;2023-06-14T08:59:28;22.30;44.80
71563;DHT22;59391;52.504;13.438;2023-06-14T09:01:56;22.30;44.40
71563;DHT22;59391;52.504;13.438;2023-06-14T09:04:22;22.40;44.40
71563;DHT22;59391;52.504;13.438;2023-06-14T09:06:55;22.40;44.30
71563;DHT22;59391;52.504;13.438;2023-06-14T09:09:21;22.50;44.30
71563;DHT22;59391;52.504;13.438;2023-06-14T09:11:51;22.60;44.10
71563;DHT22;59391;52.504;13.438;2023-06-14T09:14:18;22.70;43.80
71563;DHT22;59391;52.504;13.438;2023-06-14T09:16:45;22.70;43.40
71563;DHT22;59391;52.504;13.438;2023-06-14T09:19:23;22.80;43.90
71563;DHT22;59391;52.504;13.438;2023-06-14T09:21:50;22.90;43.60
71563;DHT22;59391;52.504;13.438;2023-06-14T09:24:18;22.90;43.20
71563;DHT22;59391;52.504;13.438;2023-06-14T09:26:47;23.00;43.30
71563;DHT22;59391;52.504;13.438;2023-06-14T09:29:12;23.10;42.70
71563;DHT22;59391;52.504;13.438;2023-06-14T09:31:38;23.10;41.90
71563;DHT22;59391;52.504;13.438;2023-06-14T09:34:05;23.20;41.90
71563;DHT22;59391;52.504;13.438;2023-06-14T09:36:32;23.20;41.60
71563;DHT22;59391;52.504;13.438;2023-06-14T09:38:59;23.30;41.60
71563;DHT22;59391;52.504;13.438;2023-06-14T09:41:37;23.30;41.60
71563;DHT22;59391;52.504;13.438;2023-06-14T09:44:06;23.30;41.30
71563;DHT22;59391;52.504;13.438;2023-06-14T09:46:33;23.30;41.50
71563;DHT22;59391;52.504;13.438;2023-06-14T09:49:02;23.40;41.40
71563;DHT22;59391;52.504;13.438;2023-06-14T09:51:28;23.40;41.40
71563;DHT22;59391;52.504;13.438;2023-06-14T09:54:03;23.40;41.30
71563;DHT22;59391;52.504;13.438;2023-06-14T09:56:35;23.50;41.30
71563;DHT22;59391;52.504;13.438;2023-06-14T09:59:05;23.50;41.80
71563;DHT22;59391;52.504;13.438;2023-06-14T10:01:34;23.50;41.60
71563;DHT22;59391;52.504;13.438;2023-06-14T10:04:06;23.60;41.20
71563;DHT22;59391;52.504;13.438;2023-06-14T10:06:41;23.60;40.90
71563;DHT22;59391;52.504;13.438;2023-06-14T10:09:10;23.70;40.60
71563;DHT22;59391;52.504;13.438;2023-06-14T10:11:37;23.70;40.60
71563;DHT22;59391;52.504;13.438;2023-06-14T10:14:10;23.70;41.00
71563;DHT22;59391;52.504;13.438;2023-06-14T10:19:40;23.70;40.60
71563;DHT22;59391;52.504;13.438;2023-06-14T10:22:18;23.70;40.40
71563;DHT22;59391;52.504;13.438;2023-06-14T10:24:48;23.70;40.20
71563;DHT22;59391;52.504;13.438;2023-06-14T10:27:16;23.70;40.30
71563;DHT22;59391;52.504;13.438;2023-06-14T10:32:25;23.70;40.20
71563;DHT22;59391;52.504;13.438;2023-06-14T10:35:01;23.70;40.40
71563;DHT22;59391;52.504;13.438;2023-06-14T10:37:31;23.70;40.30
71563;DHT22;59391;52.504;13.438;2023-06-14T10:39:57;23.70;40.60
71563;DHT22;59391;52.504;13.438;2023-06-14T10:42:29;23.70;40.30
71563;DHT22;59391;52.504;13.438;2023-06-14T10:44:58;23.70;40.20
71563;DHT22;59391;52.504;13.438;2023-06-14T10:47:27;23.70;40.20
71563;DHT22;59391;52.504;13.438;2023-06-14T10:52:28;23.60;40.40
71563;DHT22;59391;52.504;13.438;2023-06-14T10:55:18;23.60;40.30
71563;DHT22;59391;52.504;13.438;2023-06-14T10:57:48;23.60;40.30
71563;DHT22;59391;52.504;13.438;2023-06-14T11:00:22;23.60;40.30
71563;DHT22;59391;52.504;13.438;2023-06-14T11:03:08;23.70;40.50
71563;DHT22;59391;52.504;13.438;2023-06-14T11:05:54;23.80;40.60
71563;DHT22;59391;52.504;13.438;2023-06-14T11:11:48;23.90;39.80
71563;DHT22;59391;52.504;13.438;2023-06-14T11:14:14;23.90;39.70
71563;DHT22;59391;52.504;13.438;2023-06-14T11:16:40;24.00;39.70
71563;DHT22;59391;52.504;13.438;2023-06-14T11:19:05;24.10;39.60
71563;DHT22;59391;52.504;13.438;2023-06-14T11:21:34;24.20;39.60
71563;DHT22;59391;52.504;13.438;2023-06-14T11:24:10;24.20;39.50
71563;DHT22;59391;52.504;13.438;2023-06-14T11:26:37;24.30;39.30
71563;DHT22;59391;52.504;13.438;2023-06-14T11:29:04;24.40;38.90
71563;DHT22;59391;52.504;13.438;2023-06-14T11:31:30;24.50;38.90
71563;DHT22;59391;52.504;13.438;2023-06-14T11:33:57;24.60;38.70
71563;DHT22;59391;52.504;13.438;2023-06-14T11:36:29;24.70;38.70
71563;DHT22;59391;52.504;13.438;2023-06-14T11:39:03;24.80;38.60
71563;DHT22;59391;52.504;13.438;2023-06-14T11:41:44;24.90;38.30
71563;DHT22;59391;52.504;13.438;2023-06-14T11:44:11;25.00;37.90
71563;DHT22;59391;52.504;13.438;2023-06-14T11:46:37;25.10;37.50
71563;DHT22;59391;52.504;13.438;2023-06-14T11:49:04;25.20;37.10
71563;DHT22;59391;52.504;13.438;2023-06-14T11:51:33;25.20;37.30
71563;DHT22;59391;52.504;13.438;2023-06-14T11:54:00;25.30;37.40
71563;DHT22;59391;52.504;13.438;2023-06-14T11:56:28;25.30;37.30
71563;DHT22;59391;52.504;13.438;2023-06-14T11:58:55;25.40;37.40
71563;DHT22;59391;52.504;13.438;2023-06-14T12:01:22;25.50;37.20
71563;DHT22;59391;52.504;13.438;2023-06-14T12:03:53;25.50;36.90
71563;DHT22;59391;52.504;13.438;2023-06-14T12:06:27;25.60;36.70
71563;DHT22;59391;52.504;13.438;2023-06-14T12:08:56;25.80;36.10
71563;DHT22;59391;52.504;13.438;2023-06-14T12:11:22;25.90;35.90
71563;DHT22;59391;52.504;13.438;2023-06-14T12:13:48;26.10;35.60
71563;DHT22;59391;52.504;13.438;2023-06-14T12:16:14;26.30;35.20
71563;DHT22;59391;52.504;13.438;2023-06-14T12:18:41;26.50;35.00
71563;DHT22;59391;52.504;13.438;2023-06-14T12:21:09;26.70;34.90
71563;DHT22;59391;52.504;13.438;2023-06-14T12:23:46;26.90;35.00
71563;DHT22;59391;52.504;13.438;2023-06-14T12:26:19;27.10;34.20
71563;DHT22;59391;52.504;13.438;2023-06-14T12:28:46;27.30;33.90
71563;DHT22;59391;52.504;13.438;2023-06-14T12:31:14;27.50;32.90
71563;DHT22;59391;52.504;13.438;2023-06-14T12:33:41;27.70;32.70
71563;DHT22;59391;52.504;13.438;2023-06-14T12:36:08;27.80;32.90
71563;DHT22;59391;52.504;13.438;2023-06-14T12:38:35;28.00;32.60
71563;DHT22;59391;52.504;13.438;2023-06-14T12:41:01;28.30;32.00
71563;DHT22;59391;52.504;13.438;2023-06-14T12:43:27;28.60;31.70
71563;DHT22;59391;52.504;13.438;2023-06-14T12:45:53;28.90;30.60
71563;DHT22;59391;52.504;13.438;2023-06-14T12:48:19;29.20;29.90
71563;DHT22;59391;52.504;13.438;2023-06-14T12:50:46;29.60;29.50
71563;DHT22;59391;52.504;13.438;2023-06-14T12:53:12;29.90;29.00
71563;DHT22;59391;52.504;13.438;2023-06-14T12:55:37;30.20;29.20
71563;DHT22;59391;52.504;13.438;2023-06-14T12:58:03;30.50;28.70
71563;DHT22;59391;52.504;13.438;2023-06-14T13:00:29;30.70;28.40
71563;DHT22;59391;52.504;13.438;2023-06-14T13:02:56;31.10;27.70
71563;DHT22;59391;52.504;13.438;2023-06-14T13:05:22;31.40;26.80
71563;DHT22;59391;52.504;13.438;2023-06-14T13:07:49;31.60;26.10
71563;DHT22;59391;52.504;13.438;2023-06-14T13:10:15;31.80;26.20
71563;DHT22;59391;52.504;13.438;2023-06-14T13:12:41;32.00;26.00
71563;DHT22;59391;52.504;13.438;2023-06-14T13:15:07;32.10;25.50
71563;DHT22;59391;52.504;13.438;2023-06-14T13:17:34;32.10;25.10
71563;DHT22;59391;52.504;13.438;2023-06-14T13:20:07;32.10;25.00
71563;DHT22;59391;52.504;13.438;2023-06-14T13:22:34;32.00;25.10
71563;DHT22;59391;52.504;13.438;2023-06-14T13:25:01;31.90;25.00
71563;DHT22;59391;52.504;13.438;2023-06-14T13:27:27;31.70;24.60
71563;DHT22;59391;52.504;13.438;2023-06-14T13:29:53;31.50;25.00
71563;DHT22;59391;52.504;13.438;2023-06-14T13:32:21;31.20;25.40
71563;DHT22;59391;52.504;13.438;2023-06-14T13:34:47;31.00;25.30
71563;DHT22;59391;52.504;13.438;2023-06-14T13:37:13;30.80;25.30
71563;DHT22;59391;52.504;13.438;2023-06-14T13:39:39;30.60;25.60
71563;DHT22;59391;52.504;13.438;2023-06-14T13:42:05;30.40;25.80
71563;DHT22;59391;52.504;13.438;2023-06-14T13:44:31;30.30;25.70
71563;DHT22;59391;52.504;13.438;2023-06-14T13:46:57;30.20;26.10
71563;DHT22;59391;52.504;13.438;2023-06-14T13:49:22;30.00;26.30
71563;DHT22;59391;52.504;13.438;2023-06-14T13:51:48;29.90;25.90
71563;DHT22;59391;52.504;13.438;2023-06-14T13:54:14;29.80;26.10
71563;DHT22;59391;52.504;13.438;2023-06-14T13:56:41;29.70;26.10
71563;DHT22;59391;52.504;13.438;2023-06-14T13:59:07;29.70;26.30
71563;DHT22;59391;52.504;13.438;2023-06-14T14:01:33;29.60;26.30
71563;DHT22;59391;52.504;13.438;2023-06-14T14:03:59;29.50;26.20
71563;DHT22;59391;52.504;13.438;2023-06-14T14:06:26;29.50;26.70
71563;DHT22;59391;52.504;13.438;2023-06-14T14:08:52;29.40;26.70
71563;DHT22;59391;52.504;13.438;2023-06-14T14:11:18;29.40;27.20
71563;DHT22;59391;52.504;13.438;2023-06-14T14:13:44;29.30;27.40
71563;DHT22;59391;52.504;13.438;2023-06-14T14:16:10;29.30;27.60
71563;DHT22;59391;52.504;13.438;2023-06-14T14:18:36;29.30;27.60
71563;DHT22;59391;52.504;13.438;2023-06-14T14:21:02;29.20;27.50
71563;DHT22;59391;52.504;13.438;2023-06-14T14:23:28;29.10;27.60
71563;DHT22;59391;52.504;13.438;2023-06-14T14:25:54;28.90;27.60
71563;DHT22;59391;52.504;13.438;2023-06-14T14:28:19;28.80;27.50
71563;DHT22;59391;52.504;13.438;2023-06-14T14:30:46;28.70;27.80
71563;DHT22;59391;52.504;13.438;2023-06-14T14:33:15;28.60;27.80
71563;DHT22;59391;52.504;13.438;2023-06-14T14:35:43;28.60;27.60
71563;DHT22;59391;52.504;13.438;2023-06-14T14:38:11;28.50;28.00
71563;DHT22;59391;52.504;13.438;2023-06-14T14:40:38;28.50;28.00
71563;DHT22;59391;52.504;13.438;2023-06-14T14:43:04;28.40;27.50
71563;DHT22;59391;52.504;13.438;2023-06-14T14:45:30;28.40;27.10
71563;DHT22;59391;52.504;13.438;2023-06-14T14:47:56;28.40;27.40
71563;DHT22;59391;52.504;13.438;2023-06-14T14:50:22;28.30;27.50
71563;DHT22;59391;52.504;13.438;2023-06-14T14:52:47;28.30;27.50
71563;DHT22;59391;52.504;13.438;2023-06-14T14:55:13;28.30;27.60
71563;DHT22;59391;52.504;13.438;2023-06-14T14:57:39;28.20;27.40
71563;DHT22;59391;52.504;13.438;2023-06-14T15:00:06;28.20;27.70
71563;DHT22;59391;52.504;13.438;2023-06-14T15:02:31;28.10;28.20
71563;DHT22;59391;52.504;13.438;2023-06-14T15:04:57;28.10;28.50
71563;DHT22;59391;52.504;13.438;2023-06-14T15:07:35;28.00;28.60
71563;DHT22;59391;52.504;13.438;2023-06-14T15:10:01;27.90;28.60
71563;DHT22;59391;52.504;13.438;2023-06-14T15:12:27;27.90;28.70
71563;DHT22;59391;52.504;13.438;2023-06-14T15:14:53;27.70;28.60
71563;DHT22;59391;52.504;13.438;2023-06-14T15:17:19;27.60;28.80
71563;DHT22;59391;52.504;13.438;2023-06-14T15:19:47;27.50;29.00
71563;DHT22;59391;52.504;13.438;2023-06-14T15:22:13;27.40;29.30
71563;DHT22;59391;52.504;13.438;2023-06-14T15:24:42;27.30;29.30
71563;DHT22;59391;52.504;13.438;2023-06-14T15:27:08;27.20;29.60
71563;DHT22;59391;52.504;13.438;2023-06-14T15:29:36;27.10;29.70